Aviation Digital Data Service (ADDS)

Output produced by TAFs form (1610 UTC 30 July 2015)
found at http://www.aviationweather.gov/adds/tafs/
 
KSBY 301120Z 3012/3112 17003KT P6SM SKC 
     FM301500 21011KT P6SM SCT080 BKN150 
     FM302200 19007KT P6SM VCSH BKN050 OVC100 
     FM310900 32003KT 4SM BR SKC